createdAt,value
2016-10-21T00:00:33.681Z,19.25
2016-10-21T00:01:33.976Z,19.25
2016-10-21T00:02:33.960Z,19.34
2016-10-21T00:03:33.939Z,19.35
2016-10-21T00:04:33.616Z,19.38
2016-10-21T00:05:33.911Z,19.35
2016-10-21T00:06:33.889Z,19.39
2016-10-21T00:07:33.568Z,19.31
2016-10-21T00:08:33.859Z,19.34
2016-10-21T00:09:33.848Z,19.43
2016-10-21T00:10:33.513Z,19.39
2016-10-21T00:11:33.812Z,19.4
2016-10-21T00:12:33.790Z,19.42
2016-10-21T00:13:33.823Z,19.3
2016-10-21T00:14:33.130Z,19.28
2016-10-21T00:15:33.737Z,19.31
2016-10-21T00:16:33.728Z,19.39
2016-10-21T00:17:33.712Z,19.35
2016-10-21T00:18:33.697Z,19.34
2016-10-21T00:19:33.677Z,19.38
2016-10-21T00:20:33.663Z,19.39
2016-10-21T00:21:33.639Z,19.38
2016-10-21T00:22:33.628Z,19.35
2016-10-21T00:23:33.607Z,19.45
2016-10-21T00:24:33.597Z,19.4
2016-10-21T00:25:33.576Z,19.28
2016-10-21T00:26:33.561Z,19.42
2016-10-21T00:27:33.538Z,19.3
2016-10-21T00:28:33.215Z,19.42
2016-10-21T00:29:33.514Z,19.39
2016-10-21T00:30:33.493Z,19.31
2016-10-21T00:31:33.163Z,19.38
2016-10-21T00:32:33.456Z,19.42
2016-10-21T00:33:33.447Z,19.35
2016-10-21T00:34:33.105Z,19.39
2016-10-21T00:35:33.411Z,19.38
2016-10-21T00:36:33.084Z,19.38
2016-10-21T00:37:33.368Z,19.39
2016-10-21T00:38:33.359Z,19.35
2016-10-21T00:39:33.347Z,19.34
2016-10-21T00:40:33.322Z,19.35
2016-10-21T00:41:33.005Z,19.31
2016-10-21T00:42:33.293Z,19.32
2016-10-21T00:43:33.276Z,19.34
2016-10-21T00:44:33.259Z,19.28
2016-10-21T00:45:33.244Z,19.35
2016-10-21T00:46:33.226Z,19.32
2016-10-21T00:47:33.215Z,19.42
2016-10-21T00:48:33.184Z,19.42
2016-10-21T00:49:32.857Z,19.38
2016-10-21T00:50:33.162Z,19.28
2016-10-21T00:51:32.828Z,19.32
2016-10-21T00:52:33.127Z,19.39
2016-10-21T00:53:33.106Z,19.38
2016-10-21T00:54:32.783Z,19.31
2016-10-21T00:55:33.080Z,19.39
2016-10-21T00:56:33.059Z,19.28
2016-10-21T00:57:33.040Z,19.32
2016-10-21T00:58:33.024Z,19.39
2016-10-21T00:59:32.701Z,19.31
2016-10-21T01:00:32.362Z,19.34
2016-10-21T01:01:32.981Z,19.35
2016-10-21T01:02:32.958Z,19.31
2016-10-21T01:03:32.945Z,19.43
2016-10-21T01:04:32.925Z,19.43
2016-10-21T01:05:32.904Z,19.39
2016-10-21T01:06:32.889Z,19.43
2016-10-21T01:07:32.877Z,19.45
2016-10-21T01:08:32.546Z,19.34
2016-10-21T01:09:32.837Z,19.28
2016-10-21T01:10:32.830Z,19.34
2016-10-21T01:11:32.803Z,19.35
2016-10-21T01:12:32.165Z,19.34
2016-10-21T01:13:32.780Z,19.31
2016-10-21T01:14:32.445Z,19.28
2016-10-21T01:15:32.744Z,19.28
2016-10-21T01:16:32.729Z,19.42
2016-10-21T01:17:32.709Z,19.38
2016-10-21T01:18:32.730Z,19.34
2016-10-21T01:19:32.678Z,19.31
2016-10-21T01:20:32.348Z,19.39
2016-10-21T01:21:32.321Z,19.31
2016-10-21T01:22:32.312Z,19.32
2016-10-21T01:23:32.620Z,19.35
2016-10-21T01:24:32.595Z,19.34
2016-10-21T01:25:32.256Z,19.39
2016-10-21T01:26:32.254Z,19.28
2016-10-21T01:27:32.541Z,19.4
2016-10-21T01:28:32.535Z,19.4
2016-10-21T01:29:32.511Z,19.34
2016-10-21T01:30:32.498Z,19.42
2016-10-21T01:31:32.473Z,19.4
2016-10-21T01:32:32.463Z,19.31
2016-10-21T01:33:32.438Z,19.35
2016-10-21T01:34:32.119Z,19.3
2016-10-21T01:35:32.414Z,19.35
2016-10-21T01:36:32.394Z,19.45
2016-10-21T01:37:32.381Z,19.46
2016-10-21T01:38:32.361Z,19.4
2016-10-21T01:39:32.341Z,19.42
2016-10-21T01:40:32.328Z,19.45
2016-10-21T01:41:32.310Z,19.45
2016-10-21T01:42:32.291Z,19.4
2016-10-21T01:43:32.280Z,19.43
2016-10-21T01:44:32.267Z,19.46
2016-10-21T01:45:31.607Z,19.4
2016-10-21T01:46:31.916Z,19.45
2016-10-21T01:47:32.211Z,19.42
2016-10-21T01:48:32.198Z,19.45
2016-10-21T01:49:32.211Z,19.4
2016-10-21T01:50:32.156Z,19.45
2016-10-21T01:51:32.173Z,19.46
2016-10-21T01:52:31.811Z,19.47
2016-10-21T01:53:32.114Z,19.42
2016-10-21T01:54:32.096Z,19.46
2016-10-21T01:55:32.079Z,19.5
2016-10-21T01:56:32.056Z,19.4
2016-10-21T01:57:32.049Z,19.38
2016-10-21T01:58:32.026Z,19.43
2016-10-21T01:59:31.689Z,19.43
2016-10-21T02:00:31.990Z,19.34
2016-10-21T02:01:31.978Z,19.31
2016-10-21T02:02:31.963Z,19.31
2016-10-21T02:03:31.990Z,19.43
2016-10-21T02:04:31.931Z,19.4
2016-10-21T02:05:31.909Z,19.34
2016-10-21T02:06:31.900Z,19.46
2016-10-21T02:07:31.921Z,19.46
2016-10-21T02:08:31.868Z,19.35
2016-10-21T02:09:31.848Z,19.35
2016-10-21T02:10:31.827Z,19.43
2016-10-21T02:11:31.812Z,19.46
2016-10-21T02:12:31.795Z,19.31
2016-10-21T02:13:31.776Z,19.46
2016-10-21T02:14:31.755Z,19.28
2016-10-21T02:15:31.751Z,19.42
2016-10-21T02:16:31.728Z,19.32
2016-10-21T02:17:31.707Z,19.42
2016-10-21T02:18:31.382Z,19.43
2016-10-21T02:19:31.672Z,19.42
2016-10-21T02:20:31.669Z,19.34
2016-10-21T02:21:31.639Z,19.42
2016-10-21T02:22:31.629Z,19.43
2016-10-21T02:23:31.296Z,19.38
2016-10-21T02:24:31.602Z,19.38
2016-10-21T02:25:31.579Z,19.45
2016-10-21T02:26:31.242Z,19.39
2016-10-21T02:27:31.557Z,19.42
2016-10-21T02:28:31.521Z,19.43
2016-10-21T02:29:31.196Z,19.34
2016-10-21T02:30:31.497Z,19.42
2016-10-21T02:31:31.481Z,19.46
2016-10-21T02:32:31.145Z,19.35
2016-10-21T02:33:31.447Z,19.4
2016-10-21T02:34:31.428Z,19.43
2016-10-21T02:35:31.101Z,19.43
2016-10-21T02:36:31.396Z,19.39
2016-10-21T02:37:31.381Z,19.31
2016-10-21T02:38:31.052Z,19.4
2016-10-21T02:39:31.345Z,19.42
2016-10-21T02:40:31.332Z,19.42
2016-10-21T02:41:31.312Z,19.35
2016-10-21T02:42:30.983Z,19.39
2016-10-21T02:43:31.281Z,19.3
2016-10-21T02:44:31.262Z,19.39
2016-10-21T02:45:30.931Z,19.31
2016-10-21T02:46:31.228Z,19.42
2016-10-21T02:47:31.217Z,19.42
2016-10-21T02:48:31.197Z,19.31
2016-10-21T02:49:31.190Z,19.31
2016-10-21T02:50:31.160Z,19.28
2016-10-21T02:51:31.158Z,19.38
2016-10-21T02:52:30.816Z,19.35
2016-10-21T02:53:31.111Z,19.3
2016-10-21T02:54:31.093Z,19.32
2016-10-21T02:55:30.803Z,19.42
2016-10-21T02:56:31.056Z,19.42
2016-10-21T02:57:30.728Z,19.31
2016-10-21T02:58:31.027Z,19.39
2016-10-21T02:59:31.014Z,19.32
2016-10-21T03:00:31.003Z,19.35
2016-10-21T03:01:30.691Z,19.35
2016-10-21T03:02:30.968Z,19.39
2016-10-21T03:03:30.627Z,19.27
2016-10-21T03:04:30.932Z,19.35
2016-10-21T03:05:30.925Z,19.4
2016-10-21T03:06:30.264Z,19.35
2016-10-21T03:07:30.886Z,19.27
2016-10-21T03:08:30.549Z,19.4
2016-10-21T03:09:30.849Z,19.4
2016-10-21T03:10:30.825Z,19.4
2016-10-21T03:11:30.500Z,19.31
2016-10-21T03:12:30.798Z,19.25
2016-10-21T03:13:30.775Z,19.4
2016-10-21T03:14:30.444Z,19.28
2016-10-21T03:15:30.741Z,19.27
2016-10-21T03:16:30.413Z,19.3
2016-10-21T03:17:30.714Z,19.31
2016-10-21T03:18:30.699Z,19.27
2016-10-21T03:19:30.681Z,19.3
2016-10-21T03:20:30.655Z,19.27
2016-10-21T03:21:30.651Z,19.28
2016-10-21T03:22:30.319Z,19.38
2016-10-21T03:23:30.621Z,19.4
2016-10-21T03:24:30.592Z,19.27
2016-10-21T03:25:30.272Z,19.28
2016-10-21T03:26:30.561Z,19.38
2016-10-21T03:27:30.542Z,19.32
2016-10-21T03:28:30.529Z,19.31
2016-10-21T03:29:30.521Z,19.25
2016-10-21T03:30:30.501Z,19.27
2016-10-21T03:31:30.167Z,19.27
2016-10-21T03:32:30.468Z,19.25
2016-10-21T03:33:30.442Z,19.27
2016-10-21T03:34:30.438Z,19.31
2016-10-21T03:35:30.413Z,19.35
2016-10-21T03:36:30.395Z,19.31
2016-10-21T03:37:30.382Z,19.35
2016-10-21T03:38:30.363Z,19.25
2016-10-21T03:39:30.349Z,19.32
2016-10-21T03:40:30.328Z,19.28
2016-10-21T03:41:30.319Z,19.28
2016-10-21T03:42:30.306Z,19.28
2016-10-21T03:43:30.281Z,19.24
2016-10-21T03:44:29.945Z,19.25
2016-10-21T03:45:29.925Z,19.21
2016-10-21T03:46:30.231Z,19.24
2016-10-21T03:47:29.896Z,19.27
2016-10-21T03:48:30.200Z,19.31
2016-10-21T03:49:30.177Z,19.31
2016-10-21T03:50:29.844Z,19.31
2016-10-21T03:51:30.145Z,19.3
2016-10-21T03:52:29.809Z,19.3
2016-10-21T03:53:30.108Z,19.3
2016-10-21T03:54:30.095Z,19.39
2016-10-21T03:55:30.080Z,19.3
2016-10-21T03:56:30.057Z,19.3
2016-10-21T03:57:30.049Z,19.24
2016-10-21T03:58:30.022Z,19.27
2016-10-21T03:59:30.021Z,19.28
2016-10-21T04:00:29.996Z,19.3
2016-10-21T04:01:29.975Z,19.27
2016-10-21T04:02:29.966Z,19.25
2016-10-21T04:03:29.940Z,19.32
2016-10-21T04:04:29.933Z,19.25
2016-10-21T04:05:29.632Z,19.35
2016-10-21T04:06:29.902Z,19.49
2016-10-21T04:07:29.905Z,19.47
2016-10-21T04:08:29.866Z,19.6
2016-10-21T04:09:29.527Z,19.55
2016-10-21T04:10:29.554Z,19.7
2016-10-21T04:11:29.854Z,19.72
2016-10-21T04:12:29.793Z,19.71
2016-10-21T04:13:29.786Z,19.82
2016-10-21T04:14:29.451Z,19.82
2016-10-21T04:15:29.743Z,19.8
2016-10-21T04:16:29.728Z,19.85
2016-10-21T04:17:29.712Z,19.86
2016-10-21T04:18:29.692Z,20
2016-10-21T04:19:29.680Z,19.97
2016-10-21T04:20:29.661Z,19.95
2016-10-21T04:21:29.330Z,19.9
2016-10-21T04:22:29.627Z,19.94
2016-10-21T04:23:29.287Z,20
2016-10-21T04:24:29.286Z,20.08
2016-10-21T04:25:29.577Z,20.02
2016-10-21T04:26:29.554Z,19.98
2016-10-21T04:27:29.542Z,20.07
2016-10-21T04:28:29.539Z,20.1
2016-10-21T04:29:29.510Z,20.16
2016-10-21T04:30:29.493Z,20.1
2016-10-21T04:31:29.479Z,20.17
2016-10-21T04:32:29.461Z,20.04
2016-10-21T04:33:29.443Z,20.04
2016-10-21T04:34:29.428Z,20.15
2016-10-21T04:35:29.409Z,20.13
2016-10-21T04:36:29.394Z,20.1
2016-10-21T04:37:29.389Z,20.08
2016-10-21T04:38:29.403Z,20.19
2016-10-21T04:39:29.349Z,20.05
2016-10-21T04:40:29.016Z,20.15
2016-10-21T04:41:29.309Z,20.05
2016-10-21T04:42:29.299Z,20.15
2016-10-21T04:43:29.277Z,20.19
2016-10-21T04:44:29.262Z,20.05
2016-10-21T04:45:29.243Z,20.12
2016-10-21T04:46:29.261Z,20.07
2016-10-21T04:47:28.904Z,20.07
2016-10-21T04:48:29.195Z,20.04
2016-10-21T04:49:29.186Z,20.07
2016-10-21T04:50:29.164Z,20.12
2016-10-21T04:51:29.147Z,20.17
2016-10-21T04:52:28.820Z,20.16
2016-10-21T04:53:28.799Z,20.19
2016-10-21T04:54:28.784Z,20.17
2016-10-21T04:55:29.091Z,20.22
2016-10-21T04:56:29.064Z,20.2
2016-10-21T04:57:29.090Z,20.2
2016-10-21T04:58:29.035Z,20.19
2016-10-21T04:59:29.012Z,20.23
2016-10-21T05:00:29.001Z,20.23
2016-10-21T05:01:28.672Z,20.2
2016-10-21T05:02:28.971Z,20.17
2016-10-21T05:03:28.947Z,20.22
2016-10-21T05:04:28.618Z,20.3
2016-10-21T05:05:28.916Z,20.2
2016-10-21T05:06:28.597Z,20.3
2016-10-21T05:07:28.888Z,20.34
2016-10-21T05:08:28.862Z,20.33
2016-10-21T05:09:28.852Z,20.26
2016-10-21T05:10:28.833Z,20.34
2016-10-21T05:11:28.819Z,20.33
2016-10-21T05:12:28.484Z,20.3
2016-10-21T05:13:28.791Z,20.34
2016-10-21T05:14:28.785Z,20.31
2016-10-21T05:15:28.445Z,20.3
2016-10-21T05:16:28.736Z,20.33
2016-10-21T05:17:28.731Z,20.37
2016-10-21T05:18:28.709Z,20.34
2016-10-21T05:19:28.690Z,20.33
2016-10-21T05:20:28.671Z,20.4
2016-10-21T05:21:28.659Z,20.37
2016-10-21T05:22:28.644Z,20.35
2016-10-21T05:23:28.621Z,20.38
2016-10-21T05:24:28.612Z,20.34
2016-10-21T05:25:28.593Z,20.35
2016-10-21T05:26:28.571Z,20.27
2016-10-21T05:27:28.562Z,20.35
2016-10-21T05:28:28.539Z,20.37
2016-10-21T05:29:28.528Z,20.33
2016-10-21T05:30:28.543Z,20.31
2016-10-21T05:31:28.492Z,20.34
2016-10-21T05:32:28.484Z,20.37
2016-10-21T05:33:28.463Z,20.33
2016-10-21T05:34:28.135Z,20.37
2016-10-21T05:35:28.431Z,20.38
2016-10-21T05:36:28.451Z,20.38
2016-10-21T05:37:28.400Z,20.35
2016-10-21T05:38:28.381Z,20.35
2016-10-21T05:39:28.366Z,20.33
2016-10-21T05:40:28.347Z,20.37
2016-10-21T05:41:28.329Z,20.3
2016-10-21T05:42:28.320Z,20.31
2016-10-21T05:43:28.299Z,20.35
2016-10-21T05:44:28.282Z,20.42
2016-10-21T05:45:27.955Z,20.31
2016-10-21T05:46:27.944Z,20.34
2016-10-21T05:47:28.236Z,20.41
2016-10-21T05:48:27.933Z,20.31
2016-10-21T05:49:28.198Z,20.41
2016-10-21T05:50:28.183Z,20.46
2016-10-21T05:51:28.203Z,20.42
2016-10-21T05:52:28.144Z,20.42
2016-10-21T05:53:28.139Z,20.53
2016-10-21T05:54:27.802Z,20.46
2016-10-21T05:55:27.799Z,20.38
2016-10-21T05:56:28.090Z,20.48
2016-10-21T05:57:28.074Z,20.53
2016-10-21T05:58:28.057Z,20.42
2016-10-21T05:59:28.036Z,20.48
2016-10-21T06:00:27.703Z,20.5
2016-10-21T06:01:28.013Z,20.5
2016-10-21T06:02:27.994Z,20.5
2016-10-21T06:03:27.975Z,20.5
2016-10-21T06:04:27.956Z,20.4
2016-10-21T06:05:27.939Z,20.5
2016-10-21T06:06:27.929Z,20.41
2016-10-21T06:07:27.910Z,20.4
2016-10-21T06:08:27.893Z,20.48
2016-10-21T06:09:27.880Z,20.46
2016-10-21T06:10:27.857Z,20.5
2016-10-21T06:11:27.842Z,20.5
2016-10-21T06:12:27.830Z,20.48
2016-10-21T06:13:27.499Z,20.5
2016-10-21T06:14:27.801Z,20.48
2016-10-21T06:15:27.151Z,20.5
2016-10-21T06:16:27.761Z,20.56
2016-10-21T06:17:27.754Z,20.48
2016-10-21T06:18:27.731Z,20.46
2016-10-21T06:19:27.722Z,20.48
2016-10-21T06:20:27.705Z,20.53
2016-10-21T06:21:27.367Z,20.48
2016-10-21T06:22:27.352Z,20.54
2016-10-21T06:23:27.653Z,20.53
2016-10-21T06:24:27.636Z,20.46
2016-10-21T06:25:27.623Z,20.5
2016-10-21T06:26:27.284Z,20.53
2016-10-21T06:27:27.591Z,20.51
2016-10-21T06:28:27.576Z,20.53
2016-10-21T06:29:27.241Z,20.5
2016-10-21T06:30:27.543Z,20.5
2016-10-21T06:31:27.522Z,20.54
2016-10-21T06:32:27.510Z,20.5
2016-10-21T06:33:27.491Z,20.48
2016-10-21T06:34:27.508Z,20.53
2016-10-21T06:35:27.461Z,20.57
2016-10-21T06:36:27.450Z,20.48
2016-10-21T06:37:27.428Z,20.57
2016-10-21T06:38:27.105Z,20.56
2016-10-21T06:39:27.082Z,20.48
2016-10-21T06:40:27.067Z,20.61
2016-10-21T06:41:27.042Z,20.6
2016-10-21T06:42:27.344Z,20.61
2016-10-21T06:43:27.341Z,20.61
2016-10-21T06:44:26.992Z,20.61
2016-10-21T06:45:27.299Z,20.6
2016-10-21T06:46:27.283Z,20.78
2016-10-21T06:47:27.302Z,20.78
2016-10-21T06:48:27.251Z,20.78
2016-10-21T06:49:27.272Z,20.76
2016-10-21T06:50:27.217Z,20.64
2016-10-21T06:51:27.197Z,20.76
2016-10-21T06:52:27.192Z,20.76
2016-10-21T06:53:27.169Z,20.73
2016-10-21T06:54:27.154Z,20.71
2016-10-21T06:55:27.151Z,20.75
2016-10-21T06:56:26.805Z,20.81
2016-10-21T06:57:27.102Z,20.68
2016-10-21T06:58:27.089Z,20.78
2016-10-21T06:59:27.074Z,20.72
2016-10-21T07:00:27.059Z,20.76
2016-10-21T07:01:27.050Z,20.78
2016-10-21T07:02:27.025Z,20.79
2016-10-21T07:03:27.007Z,20.76
2016-10-21T07:04:26.991Z,20.75
2016-10-21T07:05:26.978Z,20.73
2016-10-21T07:06:26.957Z,20.78
2016-10-21T07:07:26.942Z,20.79
2016-10-21T07:08:26.928Z,20.64
2016-10-21T07:09:26.915Z,20.72
2016-10-21T07:10:26.926Z,20.72
2016-10-21T07:11:26.886Z,20.72
2016-10-21T07:12:26.872Z,20.78
2016-10-21T07:13:26.849Z,20.71
2016-10-21T07:14:26.837Z,20.75
2016-10-21T07:15:26.812Z,20.66
2016-10-21T07:16:26.794Z,20.75
2016-10-21T07:17:26.794Z,20.79
2016-10-21T07:18:26.769Z,20.76
2016-10-21T07:19:26.779Z,20.68
2016-10-21T07:20:26.732Z,20.69
2016-10-21T07:21:26.715Z,20.68
2016-10-21T07:22:26.704Z,20.68
2016-10-21T07:23:26.688Z,20.63
2016-10-21T07:24:26.670Z,20.63
2016-10-21T07:25:26.659Z,20.64
2016-10-21T07:26:26.639Z,20.61
2016-10-21T07:27:26.649Z,20.66
2016-10-21T07:28:26.612Z,20.71
2016-10-21T07:29:26.587Z,20.73
2016-10-21T07:30:26.571Z,20.75
2016-10-21T07:31:26.554Z,20.76
2016-10-21T07:32:26.549Z,20.76
2016-10-21T07:33:26.532Z,20.71
2016-10-21T07:34:26.521Z,20.72
2016-10-21T07:35:26.495Z,20.73
2016-10-21T07:36:26.192Z,20.73
2016-10-21T07:37:26.460Z,20.71
2016-10-21T07:38:26.132Z,20.79
2016-10-21T07:39:26.434Z,20.63
2016-10-21T07:40:26.406Z,20.76
2016-10-21T07:41:26.406Z,20.76
2016-10-21T07:42:26.383Z,20.78
2016-10-21T07:43:26.363Z,20.76
2016-10-21T07:44:26.348Z,20.75
2016-10-21T07:45:26.486Z,20.75
2016-10-21T07:46:26.314Z,20.64
2016-10-21T07:47:26.307Z,20.75
2016-10-21T07:48:26.286Z,20.75
2016-10-21T07:49:26.268Z,20.76
2016-10-21T07:50:25.933Z,20.76
2016-10-21T07:51:26.272Z,20.61
2016-10-21T07:52:26.220Z,20.76
2016-10-21T07:53:25.893Z,20.75
2016-10-21T07:54:25.878Z,20.75
2016-10-21T07:55:26.177Z,20.73
2016-10-21T07:56:25.844Z,20.75
2016-10-21T07:57:26.180Z,20.81
2016-10-21T07:58:26.130Z,20.76
2016-10-21T07:59:26.114Z,20.76
2016-10-21T08:00:25.785Z,20.88
2016-10-21T08:01:26.078Z,19.55
2016-10-21T08:02:26.056Z,18.19
2016-10-21T08:03:26.057Z,17.35
2016-10-21T08:04:25.717Z,16.66
2016-10-21T08:05:26.019Z,16.6
2016-10-21T08:06:25.995Z,17.22
2016-10-21T08:07:25.980Z,17.96
2016-10-21T08:08:25.967Z,18.57
2016-10-21T08:09:25.950Z,18.99
2016-10-21T08:10:25.928Z,19.28
2016-10-21T08:11:25.915Z,19.53
2016-10-21T08:12:25.900Z,19.68
2016-10-21T08:13:25.883Z,19.79
2016-10-21T08:14:25.557Z,19.89
2016-10-21T08:15:25.864Z,19.98
2016-10-21T08:16:25.829Z,20.07
2016-10-21T08:17:25.836Z,20.13
2016-10-21T08:18:25.804Z,20.16
2016-10-21T08:19:25.782Z,20.19
2016-10-21T08:20:25.460Z,20.3
2016-10-21T08:21:25.751Z,20.33
2016-10-21T08:22:25.755Z,20.31
2016-10-21T08:23:25.718Z,20.4
2016-10-21T08:24:25.711Z,20.38
2016-10-21T08:25:25.407Z,20.33
2016-10-21T08:26:25.674Z,20.35
2016-10-21T08:27:25.352Z,20.42
2016-10-21T08:28:25.647Z,20.5
2016-10-21T08:29:25.627Z,20.42
2016-10-21T08:30:25.607Z,20.44
2016-10-21T08:31:25.280Z,20.44
2016-10-21T08:32:25.585Z,20.48
2016-10-21T08:33:25.570Z,20.51
2016-10-21T08:34:25.546Z,20.54
2016-10-21T08:35:25.537Z,20.5
2016-10-21T08:36:25.514Z,20.5
2016-10-21T08:37:25.495Z,20.5
2016-10-21T08:38:25.482Z,20.5
2016-10-21T08:39:25.144Z,20.44
2016-10-21T08:40:25.485Z,20.48
2016-10-21T08:41:25.428Z,20.48
2016-10-21T08:42:25.414Z,20.46
2016-10-21T08:43:25.401Z,20.48
2016-10-21T08:44:25.379Z,20.5
2016-10-21T08:45:25.365Z,20.5
2016-10-21T08:46:25.347Z,20.5
2016-10-21T08:47:25.026Z,20.48
2016-10-21T08:48:25.005Z,20.46
2016-10-21T08:49:25.308Z,20.46
2016-10-21T08:50:25.280Z,20.5
2016-10-21T08:51:25.264Z,20.51
2016-10-21T08:52:25.246Z,20.46
2016-10-21T08:53:25.235Z,20.46
2016-10-21T08:54:25.221Z,20.53
2016-10-21T08:55:25.255Z,20.61
2016-10-21T08:56:25.221Z,20.46
2016-10-21T08:57:25.173Z,20.6
2016-10-21T08:58:25.155Z,20.6
2016-10-21T08:59:25.146Z,20.57
2016-10-21T09:00:25.125Z,20.53
2016-10-21T09:01:25.101Z,20.58
2016-10-21T09:02:25.088Z,20.57
2016-10-21T09:03:24.761Z,20.58
2016-10-21T09:04:24.738Z,20.54
2016-10-21T09:05:24.723Z,20.57
2016-10-21T09:06:25.033Z,20.61
2016-10-21T09:07:25.002Z,20.63
2016-10-21T09:08:24.681Z,20.6
2016-10-21T09:09:24.660Z,20.61
2016-10-21T09:10:24.968Z,20.54
2016-10-21T09:11:24.952Z,20.57
2016-10-21T09:12:24.616Z,20.64
2016-10-21T09:13:24.910Z,20.63
2016-10-21T09:14:24.901Z,20.63
2016-10-21T09:15:24.874Z,20.71
2016-10-21T09:16:24.552Z,20.64
2016-10-21T09:17:24.886Z,20.66
2016-10-21T09:18:24.830Z,20.63
2016-10-21T09:19:24.809Z,20.64
2016-10-21T09:20:24.834Z,20.61
2016-10-21T09:21:24.785Z,20.73
2016-10-21T09:22:24.768Z,20.66
2016-10-21T09:23:24.748Z,20.63
2016-10-21T09:24:24.735Z,20.71
2016-10-21T09:25:24.726Z,20.66
2016-10-21T09:26:24.704Z,20.75
2016-10-21T09:27:24.682Z,20.71
2016-10-21T09:28:24.665Z,20.66
2016-10-21T09:29:24.671Z,20.63
2016-10-21T09:30:24.638Z,20.68
2016-10-21T09:31:24.308Z,20.56
2016-10-21T09:32:24.604Z,20.69
2016-10-21T09:33:24.280Z,20.69
2016-10-21T09:34:24.265Z,20.72
2016-10-21T09:35:24.250Z,20.71
2016-10-21T09:36:24.556Z,20.73
2016-10-21T09:37:24.521Z,20.71
2016-10-21T09:38:24.514Z,20.75
2016-10-21T09:39:24.493Z,20.71
2016-10-21T09:40:24.480Z,20.75
2016-10-21T09:41:24.151Z,20.72
2016-10-21T09:42:24.449Z,20.63
2016-10-21T09:43:24.432Z,20.61
2016-10-21T09:44:24.411Z,20.73
2016-10-21T09:45:24.086Z,20.72
2016-10-21T09:46:24.378Z,20.73
2016-10-21T09:47:24.369Z,20.72
2016-10-21T09:48:24.348Z,20.75
2016-10-21T09:49:24.337Z,20.78
2016-10-21T09:50:24.311Z,20.73
2016-10-21T09:51:24.309Z,20.78
2016-10-21T09:52:23.967Z,20.78
2016-10-21T09:53:24.275Z,20.75
2016-10-21T09:54:24.253Z,20.78
2016-10-21T09:55:24.240Z,20.75
2016-10-21T09:56:24.222Z,20.75
2016-10-21T09:57:24.207Z,20.68
2016-10-21T09:58:24.222Z,20.75
2016-10-21T09:59:24.171Z,20.75
2016-10-21T10:00:24.156Z,20.72
2016-10-21T10:01:23.826Z,20.76
2016-10-21T10:02:24.127Z,20.81
2016-10-21T10:03:24.112Z,20.69
2016-10-21T10:04:24.105Z,20.75
2016-10-21T10:05:23.447Z,20.66
2016-10-21T10:06:24.069Z,20.78
2016-10-21T10:07:23.734Z,20.76
2016-10-21T10:08:24.071Z,20.75
2016-10-21T10:09:23.701Z,20.78
2016-10-21T10:10:24.003Z,20.68
2016-10-21T10:11:23.984Z,20.63
2016-10-21T10:12:23.978Z,20.64
2016-10-21T10:13:23.952Z,20.64
2016-10-21T10:14:23.933Z,20.64
2016-10-21T10:15:23.911Z,20.73
2016-10-21T10:16:23.896Z,20.73
2016-10-21T10:17:23.607Z,20.75
2016-10-21T10:18:23.552Z,20.78
2016-10-21T10:19:24.163Z,20.76
2016-10-21T10:20:23.837Z,20.76
2016-10-21T10:21:23.828Z,20.75
2016-10-21T10:22:23.813Z,20.82
2016-10-21T10:23:23.795Z,20.79
2016-10-21T10:24:23.773Z,20.78
2016-10-21T10:25:23.755Z,20.75
2016-10-21T10:26:23.740Z,20.72
2016-10-21T10:27:23.730Z,20.75
2016-10-21T10:28:23.714Z,20.71
2016-10-21T10:29:23.699Z,20.79
2016-10-21T10:30:23.673Z,20.69
2016-10-21T10:31:23.658Z,20.81
2016-10-21T10:32:23.650Z,20.78
2016-10-21T10:33:23.318Z,20.75
2016-10-21T10:34:23.620Z,20.73
2016-10-21T10:35:23.599Z,20.81
2016-10-21T10:36:23.632Z,20.75
2016-10-21T10:37:23.255Z,20.78
2016-10-21T10:38:23.234Z,20.76
2016-10-21T10:39:23.528Z,20.78
2016-10-21T10:40:23.514Z,20.73
2016-10-21T10:41:23.501Z,19.58
2016-10-21T10:42:23.485Z,18.47
2016-10-21T10:43:23.473Z,17.46
2016-10-21T10:44:23.452Z,16.65
2016-10-21T10:45:23.448Z,16.69
2016-10-21T10:46:23.110Z,17.32
2016-10-21T10:47:23.086Z,17.99
2016-10-21T10:48:23.383Z,18.65
2016-10-21T10:49:23.375Z,19.06
2016-10-21T10:50:23.356Z,19.31
2016-10-21T10:51:23.339Z,19.67
2016-10-21T10:52:23.332Z,19.8
2016-10-21T10:53:23.304Z,20.12
2016-10-21T10:54:23.334Z,20.19
2016-10-21T10:55:23.272Z,20.4
2016-10-21T10:56:23.259Z,20.56
2016-10-21T10:57:23.243Z,20.58
2016-10-21T10:58:23.229Z,20.61
2016-10-21T10:59:22.582Z,20.68
2016-10-21T11:00:22.923Z,20.63
2016-10-21T11:01:23.185Z,20.73
2016-10-21T11:02:22.851Z,20.78
2016-10-21T11:03:23.153Z,20.75
2016-10-21T11:04:22.819Z,20.72
2016-10-21T11:05:23.131Z,20.71
2016-10-21T11:06:22.784Z,20.79
2016-10-21T11:07:22.771Z,20.85
2016-10-21T11:08:23.070Z,20.9
2016-10-21T11:09:23.049Z,20.87
2016-10-21T11:10:23.045Z,20.87
2016-10-21T11:11:23.015Z,20.9
2016-10-21T11:12:23.003Z,20.87
2016-10-21T11:13:22.983Z,20.87
2016-10-21T11:14:22.671Z,20.9
2016-10-21T11:15:22.964Z,20.85
2016-10-21T11:16:22.323Z,21
2016-10-21T11:17:22.925Z,20.87
2016-10-21T11:18:22.917Z,20.97
2016-10-21T11:19:22.571Z,20.98
2016-10-21T11:20:22.589Z,20.91
2016-10-21T11:21:22.863Z,20.93
2016-10-21T11:22:22.850Z,20.88
2016-10-21T11:23:22.514Z,20.96
2016-10-21T11:24:22.882Z,21.01
2016-10-21T11:25:22.790Z,20.9
2016-10-21T11:26:22.811Z,20.91
2016-10-21T11:27:22.768Z,20.9
2016-10-21T11:28:22.742Z,20.85
2016-10-21T11:29:22.735Z,20.93
2016-10-21T11:30:22.398Z,20.91
2016-10-21T11:31:22.391Z,20.91
2016-10-21T11:32:22.382Z,20.96
2016-10-21T11:33:22.663Z,20.91
2016-10-21T11:34:22.653Z,20.93
2016-10-21T11:35:22.010Z,20.94
2016-10-21T11:36:22.621Z,20.96
2016-10-21T11:37:22.624Z,20.93
2016-10-21T11:38:22.596Z,20.97
2016-10-21T11:39:22.275Z,20.9
2016-10-21T11:40:22.569Z,20.91
2016-10-21T11:41:22.564Z,20.9
2016-10-21T11:42:22.217Z,20.87
2016-10-21T11:43:22.538Z,20.94
2016-10-21T11:44:22.189Z,20.97
2016-10-21T11:45:22.474Z,20.88
2016-10-21T11:46:22.463Z,20.9
2016-10-21T11:47:22.477Z,20.97
2016-10-21T11:48:22.440Z,20.93
2016-10-21T11:49:22.425Z,20.96
2016-10-21T11:50:22.081Z,20.98
2016-10-21T11:51:22.380Z,20.91
2016-10-21T11:52:22.079Z,20.93
2016-10-21T11:53:22.034Z,20.87
2016-10-21T11:54:22.345Z,20.97
2016-10-21T11:55:22.028Z,20.94
2016-10-21T11:56:22.316Z,20.94
2016-10-21T11:57:22.022Z,20.98
2016-10-21T11:58:22.277Z,21
2016-10-21T11:59:21.633Z,21.03
2016-10-21T12:00:21.613Z,21.08
2016-10-21T12:01:22.233Z,21.08
2016-10-21T12:02:22.224Z,21.13
2016-10-21T12:03:22.203Z,21.13
2016-10-21T12:04:22.169Z,21.05
2016-10-21T12:05:22.160Z,21.09
2016-10-21T12:06:22.153Z,21.16
2016-10-21T12:07:22.126Z,21.15
2016-10-21T12:08:21.789Z,21.06
2016-10-21T12:09:22.089Z,21.06
2016-10-21T12:10:21.762Z,21
2016-10-21T12:11:22.066Z,21.08
2016-10-21T12:12:22.038Z,21.03
2016-10-21T12:13:22.031Z,21
2016-10-21T12:14:21.694Z,21.01
2016-10-21T12:15:22.005Z,21.03
2016-10-21T12:16:21.987Z,21.01
2016-10-21T12:17:21.647Z,21.03
2016-10-21T12:18:21.642Z,20.51
2016-10-21T12:19:21.938Z,19.58
2016-10-21T12:20:21.922Z,19.25
2016-10-21T12:21:21.902Z,18.97
2016-10-21T12:22:21.578Z,18.69
2016-10-21T12:23:21.867Z,18.72
2016-10-21T12:24:21.857Z,18.65
2016-10-21T12:25:21.848Z,18.59
2016-10-21T12:26:21.833Z,18.51
2016-10-21T12:27:21.806Z,18.44
2016-10-21T12:28:21.801Z,18.47
2016-10-21T12:29:21.490Z,18.56
2016-10-21T12:30:21.756Z,18.66
2016-10-21T12:31:21.750Z,18.97
2016-10-21T12:32:21.728Z,19.46
2016-10-21T12:33:21.391Z,19.71
2016-10-21T12:34:21.380Z,19.83
2016-10-21T12:35:21.677Z,20.1
2016-10-21T12:36:21.656Z,20.19
2016-10-21T12:37:21.647Z,20.16
2016-10-21T12:38:21.627Z,20.37
2016-10-21T12:39:21.604Z,20.44
2016-10-21T12:40:21.595Z,20.42
2016-10-21T12:41:20.947Z,20.51
2016-10-21T12:42:21.559Z,20.53
2016-10-21T12:43:21.232Z,20.53
2016-10-21T12:44:21.535Z,20.61
2016-10-21T12:45:21.518Z,20.71
2016-10-21T12:46:21.180Z,20.6
2016-10-21T12:47:21.165Z,20.61
2016-10-21T12:48:21.157Z,20.76
2016-10-21T12:49:21.450Z,20.75
2016-10-21T12:50:21.437Z,20.66
2016-10-21T12:51:21.416Z,20.66
2016-10-21T12:52:21.404Z,20.66
2016-10-21T12:53:21.395Z,20.72
2016-10-21T12:54:21.368Z,20.75
2016-10-21T12:55:21.348Z,20.76
2016-10-21T12:56:21.333Z,20.72